sensor_id;sensor_type;location;lat;lon;timestamp;P1;durP1;ratioP1;P2;durP2;ratioP2
50789;SDS011;37287;47.554;7.844;2022-08-01T17:35:29;2.97;;;1.20;;
50789;SDS011;37287;47.554;7.844;2022-08-01T17:37:56;2.45;;;1.48;;
50789;SDS011;37287;47.554;7.844;2022-08-01T17:40:23;3.83;;;1.70;;
50789;SDS011;37287;47.554;7.844;2022-08-01T17:43:05;5.32;;;1.23;;
50789;SDS011;37287;47.554;7.844;2022-08-01T17:45:34;3.08;;;1.50;;
50789;SDS011;37287;47.554;7.844;2022-08-01T17:48:16;1.73;;;1.25;;
50789;SDS011;37287;47.554;7.844;2022-08-01T17:50:46;2.63;;;1.25;;
50789;SDS011;37287;47.554;7.844;2022-08-01T17:53:15;2.00;;;1.20;;
50789;SDS011;37287;47.554;7.844;2022-08-01T17:55:46;2.47;;;1.25;;
50789;SDS011;37287;47.554;7.844;2022-08-01T17:58:22;2.33;;;1.50;;
50789;SDS011;37287;47.554;7.844;2022-08-01T18:01:09;2.03;;;1.17;;
50789;SDS011;37287;47.554;7.844;2022-08-01T18:03:37;2.67;;;1.42;;
50789;SDS011;37287;47.554;7.844;2022-08-01T18:06:08;3.95;;;1.30;;
50789;SDS011;37287;47.554;7.844;2022-08-01T18:08:59;1.48;;;1.30;;
50789;SDS011;37287;47.554;7.844;2022-08-01T18:11:37;4.00;;;1.63;;
50789;SDS011;37287;47.554;7.844;2022-08-01T18:14:04;2.25;;;1.50;;
50789;SDS011;37287;47.554;7.844;2022-08-01T18:16:31;2.15;;;1.40;;
50789;SDS011;37287;47.554;7.844;2022-08-01T18:19:04;3.60;;;1.52;;
50789;SDS011;37287;47.554;7.844;2022-08-01T18:21:33;4.05;;;1.30;;
50789;SDS011;37287;47.554;7.844;2022-08-01T18:24:06;4.05;;;1.30;;
50789;SDS011;37287;47.554;7.844;2022-08-01T18:26:32;1.70;;;1.60;;
50789;SDS011;37287;47.554;7.844;2022-08-01T18:28:59;2.13;;;1.40;;
50789;SDS011;37287;47.554;7.844;2022-08-01T18:31:26;2.08;;;1.65;;
50789;SDS011;37287;47.554;7.844;2022-08-01T18:33:54;2.45;;;1.83;;
50789;SDS011;37287;47.554;7.844;2022-08-01T18:36:23;1.88;;;1.75;;
50789;SDS011;37287;47.554;7.844;2022-08-01T18:39:00;4.30;;;1.90;;
50789;SDS011;37287;47.554;7.844;2022-08-01T18:41:35;2.10;;;1.90;;
50789;SDS011;37287;47.554;7.844;2022-08-01T18:44:03;2.15;;;1.80;;
50789;SDS011;37287;47.554;7.844;2022-08-01T18:46:37;3.95;;;1.85;;
50789;SDS011;37287;47.554;7.844;2022-08-01T18:49:05;2.17;;;1.52;;
50789;SDS011;37287;47.554;7.844;2022-08-01T18:51:34;2.60;;;1.73;;
50789;SDS011;37287;47.554;7.844;2022-08-01T18:54:08;2.22;;;1.50;;
50789;SDS011;37287;47.554;7.844;2022-08-01T18:56:35;2.03;;;1.65;;
50789;SDS011;37287;47.554;7.844;2022-08-01T18:59:08;1.35;;;1.25;;
50789;SDS011;37287;47.554;7.844;2022-08-01T19:01:36;3.20;;;1.38;;
50789;SDS011;37287;47.554;7.844;2022-08-01T19:04:07;2.28;;;1.48;;
50789;SDS011;37287;47.554;7.844;2022-08-01T19:06:36;1.90;;;1.27;;
50789;SDS011;37287;47.554;7.844;2022-08-01T19:09:05;2.60;;;1.40;;
50789;SDS011;37287;47.554;7.844;2022-08-01T19:11:32;1.67;;;1.30;;
50789;SDS011;37287;47.554;7.844;2022-08-01T19:14:00;15.15;;;10.38;;
50789;SDS011;37287;47.554;7.844;2022-08-01T19:16:31;10.07;;;7.50;;
50789;SDS011;37287;47.554;7.844;2022-08-01T19:18:57;22.00;;;14.55;;
50789;SDS011;37287;47.554;7.844;2022-08-01T19:21:25;25.67;;;20.95;;
50789;SDS011;37287;47.554;7.844;2022-08-01T19:23:52;12.35;;;10.32;;
50789;SDS011;37287;47.554;7.844;2022-08-01T19:26:39;9.15;;;7.07;;
50789;SDS011;37287;47.554;7.844;2022-08-01T19:29:23;6.10;;;4.80;;
50789;SDS011;37287;47.554;7.844;2022-08-01T19:32:01;6.60;;;3.65;;
50789;SDS011;37287;47.554;7.844;2022-08-01T19:34:33;3.25;;;2.78;;
50789;SDS011;37287;47.554;7.844;2022-08-01T19:37:08;3.00;;;2.67;;
50789;SDS011;37287;47.554;7.844;2022-08-01T19:39:36;3.17;;;1.70;;
50789;SDS011;37287;47.554;7.844;2022-08-01T19:42:04;1.88;;;1.77;;
50789;SDS011;37287;47.554;7.844;2022-08-01T19:44:35;1.75;;;1.60;;
50789;SDS011;37287;47.554;7.844;2022-08-01T19:47:02;3.72;;;1.50;;
50789;SDS011;37287;47.554;7.844;2022-08-01T19:49:31;2.20;;;1.58;;
50789;SDS011;37287;47.554;7.844;2022-08-01T19:52:01;1.60;;;1.50;;
50789;SDS011;37287;47.554;7.844;2022-08-01T19:54:32;1.25;;;1.15;;
50789;SDS011;37287;47.554;7.844;2022-08-01T19:57:02;1.20;;;1.20;;
50789;SDS011;37287;47.554;7.844;2022-08-01T19:59:33;1.40;;;1.30;;
50789;SDS011;37287;47.554;7.844;2022-08-01T20:02:01;1.15;;;1.15;;
50789;SDS011;37287;47.554;7.844;2022-08-01T20:04:28;7.03;;;1.30;;
50789;SDS011;37287;47.554;7.844;2022-08-01T20:06:57;5.45;;;3.83;;
50789;SDS011;37287;47.554;7.844;2022-08-01T20:09:25;23.02;;;10.43;;
50789;SDS011;37287;47.554;7.844;2022-08-01T20:11:52;10.20;;;5.43;;
50789;SDS011;37287;47.554;7.844;2022-08-01T20:14:23;9.20;;;3.80;;
50789;SDS011;37287;47.554;7.844;2022-08-01T20:16:51;6.57;;;3.15;;
50789;SDS011;37287;47.554;7.844;2022-08-01T20:19:19;4.57;;;2.80;;
50789;SDS011;37287;47.554;7.844;2022-08-01T20:21:52;3.15;;;2.33;;
50789;SDS011;37287;47.554;7.844;2022-08-01T20:24:28;2.47;;;2.03;;
50789;SDS011;37287;47.554;7.844;2022-08-01T20:27:05;3.00;;;1.90;;
50789;SDS011;37287;47.554;7.844;2022-08-01T20:29:37;1.70;;;1.60;;
50789;SDS011;37287;47.554;7.844;2022-08-01T20:32:04;2.25;;;1.70;;
50789;SDS011;37287;47.554;7.844;2022-08-01T20:34:34;3.42;;;1.70;;
50789;SDS011;37287;47.554;7.844;2022-08-01T20:37:08;3.40;;;1.77;;
50789;SDS011;37287;47.554;7.844;2022-08-01T20:39:38;2.58;;;1.95;;
50789;SDS011;37287;47.554;7.844;2022-08-01T20:42:09;5.75;;;1.75;;
50789;SDS011;37287;47.554;7.844;2022-08-01T20:44:36;2.65;;;1.70;;
50789;SDS011;37287;47.554;7.844;2022-08-01T20:47:05;2.60;;;1.85;;
50789;SDS011;37287;47.554;7.844;2022-08-01T20:49:32;1.73;;;1.63;;
50789;SDS011;37287;47.554;7.844;2022-08-01T20:52:02;3.72;;;1.73;;
50789;SDS011;37287;47.554;7.844;2022-08-01T20:54:37;2.35;;;1.65;;
50789;SDS011;37287;47.554;7.844;2022-08-01T20:57:05;2.08;;;1.70;;
50789;SDS011;37287;47.554;7.844;2022-08-01T21:05:23;1.95;;;1.85;;
50789;SDS011;37287;47.554;7.844;2022-08-01T21:07:52;3.58;;;1.95;;
